Arizona, Louisiana
Current Conditions -  °F | °C
As of 8:55 PM on Friday 19 Dec 2014 (Local Time) from KMNE Reporting Station
Overcast Overcast  
Wind Chill:   Ceiling: 700
Heat Index:   Visibility: 7mi
Dew Point:   Wind: 5mph
Humidity: 93%   Direction: 60°ENE
Pressure: 30.2"   Gusts: NA
Location:  32.7443°N, 92.9625°W
Report Text: KMNE 200255Z AUTO 06004KT 7SM OVC007 08/07 A3020 RMK AO2
Loading
Personal Weather Stations






























Interactive Weather Map New forecast layout! Learn more

10-Day Weather Forecast

Advertisements
Track Severe Weather on mobile